Time;durP1;ratioP1;P1;durP2;ratioP2;P2;SDS_P1;SDS_P2;PMS_P1;PMS_P2;Temp;Humidity;BMP_temperature;BMP_pressure;BME280_temperature;BME280_humidity;BME280_pressure;Samples;Min_cycle;Max_cycle;Signal;HPM_P1;HPM_P2
2023/09/28 00:01:35;;;;;;;8.40;5.37;;;;;;;;;;5092052;28;20164;-48
2023/09/28 00:04:01;;;;;;;7.00;5.00;;;;;;;;;;5111009;28;20580;-48
2023/09/28 00:06:28;;;;;;;5.77;4.93;;;;;;;;;;5092204;28;20547;-49
2023/09/28 00:08:55;;;;;;;4.70;4.30;;;;;;;;;;5092242;28;20175;-48
2023/09/28 00:11:21;;;;;;;5.83;5.20;;;;;;;;;;5109591;28;20160;-49
2023/09/28 00:13:47;;;;;;;4.93;4.53;;;;;;;;;;5109558;28;20576;-47
2023/09/28 00:16:13;;;;;;;5.30;4.80;;;;;;;;;;5092700;28;20235;-48
2023/09/28 00:18:39;;;;;;;7.53;5.03;;;;;;;;;;5093826;28;20350;-46
2023/09/28 00:21:05;;;;;;;5.13;4.33;;;;;;;;;;5093749;28;20544;-50
2023/09/28 00:23:32;;;;;;;5.40;4.90;;;;;;;;;;5092672;28;20583;-48
2023/09/28 00:25:58;;;;;;;5.47;4.97;;;;;;;;;;5111177;28;20179;-47
2023/09/28 00:28:23;;;;;;;5.83;4.60;;;;;;;;;;5093990;28;20175;-47
2023/09/28 00:30:50;;;;;;;4.87;4.23;;;;;;;;;;5111687;28;20326;-47
2023/09/28 00:33:16;;;;;;;6.27;4.93;;;;;;;;;;5094253;28;20606;-47
2023/09/28 00:35:42;;;;;;;5.87;4.70;;;;;;;;;;5094295;28;20235;-48
2023/09/28 00:38:09;;;;;;;6.00;4.60;;;;;;;;;;5096814;28;20183;-47
2023/09/28 00:40:36;;;;;;;6.07;4.60;;;;;;;;;;5115922;28;20163;-47
2023/09/28 00:43:04;;;;;;;4.90;4.40;;;;;;;;;;5114905;28;20167;-51
2023/09/28 00:45:30;;;;;;;7.93;5.40;;;;;;;;;;5097315;28;20429;-51
2023/09/28 00:48:03;;;;;;;4.50;4.10;;;;;;;;;;5097014;28;20442;-50
2023/09/28 00:50:33;;;;;;;5.27;4.30;;;;;;;;;;5097398;28;20183;-49
2023/09/28 00:53:07;;;;;;;6.30;5.13;;;;;;;;;;5096219;28;20269;-47
2023/09/28 00:55:36;;;;;;;6.30;5.10;;;;;;;;;;5095058;28;20233;-47
2023/09/28 00:58:03;;;;;;;7.47;4.57;;;;;;;;;;5112480;28;20164;-49
2023/09/28 01:00:31;;;;;;;8.53;5.20;;;;;;;;;;5093955;28;20454;-51
2023/09/28 01:02:58;;;;;;;5.50;5.00;;;;;;;;;;5093055;28;20210;-48
2023/09/28 01:05:33;;;;;;;5.63;5.03;;;;;;;;;;5093083;28;20278;-47
2023/09/28 01:08:09;;;;;;;5.30;4.80;;;;;;;;;;5093049;28;20273;-48
2023/09/28 01:10:36;;;;;;;5.40;4.27;;;;;;;;;;5094178;28;20171;-47
2023/09/28 01:13:12;;;;;;;6.47;5.20;;;;;;;;;;5094768;28;20585;-47
2023/09/28 01:15:39;;;;;;;4.87;4.47;;;;;;;;;;5093740;28;20214;-47
2023/09/28 01:18:06;;;;;;;7.33;5.00;;;;;;;;;;5094143;28;20174;-48
2023/09/28 01:20:37;;;;;;;5.37;4.87;;;;;;;;;;5094901;28;20160;-47
2023/09/28 01:23:04;;;;;;;5.13;4.63;;;;;;;;;;5094741;28;20175;-47
2023/09/28 01:25:30;;;;;;;5.00;4.50;;;;;;;;;;5094718;28;20411;-47
2023/09/28 01:27:57;;;;;;;8.97;5.10;;;;;;;;;;5095639;28;20191;-47
2023/09/28 01:30:23;;;;;;;6.43;4.80;;;;;;;;;;5095200;28;20171;-46
2023/09/28 01:32:49;;;;;;;7.17;5.00;;;;;;;;;;5093988;28;20171;-48
2023/09/28 01:35:15;;;;;;;5.77;5.17;;;;;;;;;;5113016;28;20277;-49
2023/09/28 01:37:49;;;;;;;5.47;4.93;;;;;;;;;;5113782;28;20536;-47
2023/09/28 01:40:16;;;;;;;5.60;5.00;;;;;;;;;;5113655;28;20175;-47
2023/09/28 01:42:43;;;;;;;5.10;4.60;;;;;;;;;;5112792;28;20539;-48
2023/09/28 01:45:11;;;;;;;7.27;5.23;;;;;;;;;;5114107;28;20167;-47
2023/09/28 01:47:37;;;;;;;5.30;4.80;;;;;;;;;;5094433;28;20543;-46
2023/09/28 01:50:03;;;;;;;6.00;5.43;;;;;;;;;;5096760;28;20190;-46
2023/09/28 01:52:29;;;;;;;8.20;4.97;;;;;;;;;;5096100;28;20528;-46
2023/09/28 01:54:55;;;;;;;7.23;4.97;;;;;;;;;;5095708;28;20412;-51
2023/09/28 01:57:21;;;;;;;7.37;5.53;;;;;;;;;;5096392;28;20583;-49
2023/09/28 01:59:47;;;;;;;5.57;4.70;;;;;;;;;;5095557;28;20171;-47
2023/09/28 02:02:16;;;;;;;6.13;5.53;;;;;;;;;;5094278;28;20174;-47
2023/09/28 02:04:42;;;;;;;7.00;5.97;;;;;;;;;;5113412;28;20275;-49
2023/09/28 02:07:08;;;;;;;6.83;5.77;;;;;;;;;;5094310;28;20252;-47
2023/09/28 02:09:35;;;;;;;7.67;4.97;;;;;;;;;;5111720;28;20179;-47
2023/09/28 02:12:02;;;;;;;6.00;4.77;;;;;;;;;;5111250;28;20168;-47
2023/09/28 02:14:29;;;;;;;8.97;6.00;;;;;;;;;;5093264;28;20200;-47
2023/09/28 02:16:55;;;;;;;5.17;4.77;;;;;;;;;;5111504;28;20231;-48
2023/09/28 02:19:22;;;;;;;5.60;5.10;;;;;;;;;;5111450;28;20163;-50
2023/09/28 02:21:48;;;;;;;6.03;5.43;;;;;;;;;;5093591;28;20186;-46
2023/09/28 02:24:14;;;;;;;7.17;5.93;;;;;;;;;;5109793;28;20548;-48
2023/09/28 02:26:41;;;;;;;11.03;6.03;;;;;;;;;;5110991;28;20178;-48
2023/09/28 02:29:07;;;;;;;9.93;6.37;;;;;;;;;;5093730;28;20179;-47
2023/09/28 02:31:34;;;;;;;12.77;6.67;;;;;;;;;;5094025;28;20176;-48
2023/09/28 02:34:02;;;;;;;7.23;6.07;;;;;;;;;;5093161;28;20213;-50
2023/09/28 02:36:35;;;;;;;7.47;6.67;;;;;;;;;;5111327;28;20410;-50
2023/09/28 02:39:12;;;;;;;6.87;5.73;;;;;;;;;;5093697;28;20185;-47
2023/09/28 02:41:38;;;;;;;7.80;5.70;;;;;;;;;;5109467;28;20159;-47
2023/09/28 02:44:05;;;;;;;6.00;5.40;;;;;;;;;;5093189;28;20182;-49
2023/09/28 02:46:31;;;;;;;7.20;6.43;;;;;;;;;;5093781;28;20285;-48
2023/09/28 02:48:57;;;;;;;9.47;7.43;;;;;;;;;;5094211;28;20171;-49
2023/09/28 02:51:23;;;;;;;7.73;6.37;;;;;;;;;;5095541;28;20595;-46
2023/09/28 02:53:50;;;;;;;7.20;6.23;;;;;;;;;;5094763;28;20560;-47
2023/09/28 02:56:17;;;;;;;7.40;6.07;;;;;;;;;;5094805;28;20170;-47
2023/09/28 02:58:45;;;;;;;7.50;6.10;;;;;;;;;;5094841;28;20206;-51
2023/09/28 03:01:11;;;;;;;6.73;6.03;;;;;;;;;;5110823;28;20159;-48
2023/09/28 03:03:37;;;;;;;8.93;6.13;;;;;;;;;;5094632;28;20160;-49
2023/09/28 03:06:04;;;;;;;13.23;6.30;;;;;;;;;;5092734;28;20189;-49
2023/09/28 03:08:31;;;;;;;6.80;5.93;;;;;;;;;;5108019;28;20172;-47
2023/09/28 03:10:58;;;;;;;7.97;6.77;;;;;;;;;;5090469;28;20210;-48
2023/09/28 03:13:25;;;;;;;9.27;7.47;;;;;;;;;;5108769;28;20259;-48
2023/09/28 03:15:51;;;;;;;8.10;6.67;;;;;;;;;;5090939;28;20195;-49
2023/09/28 03:18:17;;;;;;;8.37;6.73;;;;;;;;;;5093102;28;20391;-46
2023/09/28 03:20:44;;;;;;;7.57;6.77;;;;;;;;;;5093749;28;20167;-49
2023/09/28 03:23:11;;;;;;;7.00;6.27;;;;;;;;;;5094118;28;20554;-46
2023/09/28 03:25:37;;;;;;;10.53;7.70;;;;;;;;;;5094306;28;20262;-47
2023/09/28 03:28:04;;;;;;;7.93;6.27;;;;;;;;;;5112179;28;20259;-49
2023/09/28 03:30:30;;;;;;;8.47;5.97;;;;;;;;;;5093275;28;20179;-49
2023/09/28 03:32:57;;;;;;;7.77;6.27;;;;;;;;;;5110598;28;20167;-47
2023/09/28 03:35:23;;;;;;;7.13;6.43;;;;;;;;;;5110124;28;20218;-50
2023/09/28 03:37:58;;;;;;;9.73;7.07;;;;;;;;;;5093437;28;20182;-47
2023/09/28 03:43:29;;;;;;;11.87;6.50;;;;;;;;;;5112938;28;20466;-48
2023/09/28 03:45:54;;;;;;;8.50;7.07;;;;;;;;;;5094952;28;20167;-48
2023/09/28 03:48:20;;;;;;;7.93;6.30;;;;;;;;;;5094982;28;20532;-49
2023/09/28 03:50:47;;;;;;;16.47;7.73;;;;;;;;;;5094365;28;20185;-49
2023/09/28 03:53:13;;;;;;;9.53;6.60;;;;;;;;;;5110472;28;20189;-49
2023/09/28 03:55:39;;;;;;;8.17;7.37;;;;;;;;;;5092983;28;20230;-49
2023/09/28 03:58:05;;;;;;;8.57;6.90;;;;;;;;;;5091544;28;20207;-48
2023/09/28 04:00:31;;;;;;;9.97;7.57;;;;;;;;;;5090873;28;20175;-47
2023/09/28 04:02:57;;;;;;;8.87;7.77;;;;;;;;;;5091873;28;20167;-47
2023/09/28 04:05:24;;;;;;;8.50;7.50;;;;;;;;;;5092037;28;20172;-50
2023/09/28 04:07:50;;;;;;;9.47;6.73;;;;;;;;;;5089866;28;20406;-46
2023/09/28 04:10:17;;;;;;;11.57;8.10;;;;;;;;;;5091371;28;20182;-46
2023/09/28 04:12:44;;;;;;;9.53;6.97;;;;;;;;;;5096609;28;20478;-53
2023/09/28 04:15:10;;;;;;;7.80;6.80;;;;;;;;;;5114109;28;20322;-48
2023/09/28 04:17:37;;;;;;;8.23;7.03;;;;;;;;;;5113843;28;20263;-51
2023/09/28 04:20:06;;;;;;;8.73;7.80;;;;;;;;;;5095478;28;20469;-49
2023/09/28 04:22:32;;;;;;;8.40;6.60;;;;;;;;;;5094216;28;20268;-48
2023/09/28 04:24:58;;;;;;;8.30;6.80;;;;;;;;;;5091886;28;20183;-50
2023/09/28 04:27:24;;;;;;;10.40;6.97;;;;;;;;;;5091941;28;20171;-49
2023/09/28 04:29:50;;;;;;;8.97;7.53;;;;;;;;;;5091312;28;20265;-52
2023/09/28 04:32:16;;;;;;;14.13;7.67;;;;;;;;;;5110871;28;20182;-50
2023/09/28 04:34:42;;;;;;;9.53;7.90;;;;;;;;;;5091885;28;20195;-50
2023/09/28 04:37:08;;;;;;;11.20;7.70;;;;;;;;;;5093482;28;20266;-50
2023/09/28 04:39:34;;;;;;;18.20;8.40;;;;;;;;;;5092843;28;20523;-48
2023/09/28 04:42:00;;;;;;;8.37;7.47;;;;;;;;;;5109199;28;20168;-48
2023/09/28 04:44:27;;;;;;;10.83;9.10;;;;;;;;;;5107821;28;20167;-50
2023/09/28 04:46:53;;;;;;;9.50;8.50;;;;;;;;;;5091839;28;20249;-48
2023/09/28 04:49:20;;;;;;;11.40;8.60;;;;;;;;;;5091664;28;20258;-48
2023/09/28 04:51:46;;;;;;;13.37;9.33;;;;;;;;;;5107221;28;20172;-51
2023/09/28 04:54:13;;;;;;;10.50;8.47;;;;;;;;;;5089813;28;20638;-48
2023/09/28 04:56:39;;;;;;;13.67;8.90;;;;;;;;;;5093158;28;20447;-50
2023/09/28 04:59:05;;;;;;;10.90;8.90;;;;;;;;;;5093538;28;20163;-47
2023/09/28 05:01:31;;;;;;;15.60;8.83;;;;;;;;;;5090977;28;20201;-47
2023/09/28 05:03:57;;;;;;;10.00;8.90;;;;;;;;;;5093520;28;20653;-49
2023/09/28 05:06:23;;;;;;;13.10;8.93;;;;;;;;;;5093810;28;20171;-51
2023/09/28 05:08:53;;;;;;;11.20;7.80;;;;;;;;;;5093959;28;20160;-50
2023/09/28 05:11:19;;;;;;;10.17;8.47;;;;;;;;;;5090045;28;20594;-49
2023/09/28 05:13:45;;;;;;;9.07;8.17;;;;;;;;;;5107311;28;20164;-47
2023/09/28 05:16:11;;;;;;;8.83;7.30;;;;;;;;;;5089247;28;20352;-47
2023/09/28 05:18:38;;;;;;;10.67;8.33;;;;;;;;;;5106197;28;20232;-45
2023/09/28 05:21:05;;;;;;;18.17;8.87;;;;;;;;;;5087919;28;20538;-48
2023/09/28 05:23:30;;;;;;;14.00;8.30;;;;;;;;;;5104486;28;20595;-51
2023/09/28 05:25:57;;;;;;;18.87;8.83;;;;;;;;;;5085447;28;20437;-48
2023/09/28 05:28:23;;;;;;;10.77;7.73;;;;;;;;;;5087115;28;20253;-49
2023/09/28 05:30:48;;;;;;;9.53;7.30;;;;;;;;;;5106233;28;20267;-48
2023/09/28 05:33:15;;;;;;;10.33;8.00;;;;;;;;;;5088100;28;20168;-49
2023/09/28 05:35:41;;;;;;;10.47;8.80;;;;;;;;;;5087374;28;20246;-47
2023/09/28 05:38:07;;;;;;;10.73;8.33;;;;;;;;;;5107801;28;20177;-47
2023/09/28 05:40:33;;;;;;;12.07;7.90;;;;;;;;;;5089860;28;20175;-48
2023/09/28 05:42:59;;;;;;;10.30;8.67;;;;;;;;;;5090484;28;20412;-48
2023/09/28 05:45:26;;;;;;;11.53;7.77;;;;;;;;;;5089283;28;20254;-49
2023/09/28 05:47:52;;;;;;;15.17;9.87;;;;;;;;;;5088901;28;20194;-49
2023/09/28 05:50:18;;;;;;;12.33;9.67;;;;;;;;;;5088992;28;20180;-48
2023/09/28 05:52:45;;;;;;;10.87;9.10;;;;;;;;;;5088981;28;20199;-49
2023/09/28 05:55:11;;;;;;;9.03;8.00;;;;;;;;;;5104803;28;20194;-48
2023/09/28 05:57:37;;;;;;;10.00;8.43;;;;;;;;;;5088131;28;20232;-53
2023/09/28 06:00:07;;;;;;;13.60;8.03;;;;;;;;;;5092259;28;20266;-50
2023/09/28 06:02:33;;;;;;;8.83;7.73;;;;;;;;;;5092072;28;20199;-53
2023/09/28 06:04:59;;;;;;;11.03;8.13;;;;;;;;;;5091961;28;20213;-50
2023/09/28 06:07:25;;;;;;;11.37;9.03;;;;;;;;;;5108433;28;20571;-52
2023/09/28 06:09:52;;;;;;;10.60;9.03;;;;;;;;;;5083486;28;20235;-49
2023/09/28 06:12:18;;;;;;;10.37;9.00;;;;;;;;;;5082878;28;20457;-48
2023/09/28 06:14:44;;;;;;;11.67;8.03;;;;;;;;;;5083406;28;20202;-48
2023/09/28 06:17:10;;;;;;;11.77;8.30;;;;;;;;;;5082568;28;20261;-48
2023/09/28 06:19:37;;;;;;;13.90;9.13;;;;;;;;;;5082018;28;20598;-49
2023/09/28 06:22:05;;;;;;;10.33;9.17;;;;;;;;;;5101196;28;20380;-48
2023/09/28 06:24:31;;;;;;;15.93;8.70;;;;;;;;;;5102568;28;20173;-51
2023/09/28 06:26:58;;;;;;;12.70;9.00;;;;;;;;;;5085095;28;20354;-48
2023/09/28 06:29:24;;;;;;;16.23;8.53;;;;;;;;;;5085100;28;20167;-51
2023/09/28 06:31:50;;;;;;;10.27;8.70;;;;;;;;;;5100036;28;20259;-47
2023/09/28 06:34:15;;;;;;;9.90;8.23;;;;;;;;;;5080905;28;20272;-48
2023/09/28 06:36:41;;;;;;;10.23;9.03;;;;;;;;;;5084901;28;20231;-49
2023/09/28 06:39:08;;;;;;;15.03;8.60;;;;;;;;;;5081756;28;20164;-48
2023/09/28 06:41:34;;;;;;;10.67;8.40;;;;;;;;;;5083449;28;20164;-51
2023/09/28 06:44:00;;;;;;;12.43;8.93;;;;;;;;;;5082564;28;20311;-50
2023/09/28 06:46:26;;;;;;;8.77;7.57;;;;;;;;;;5083847;28;20334;-50
2023/09/28 06:48:52;;;;;;;14.30;7.87;;;;;;;;;;5085362;28;20170;-47
2023/09/28 06:51:20;;;;;;;13.13;9.03;;;;;;;;;;5087356;28;20159;-45
2023/09/28 06:53:46;;;;;;;8.70;7.80;;;;;;;;;;5103196;28;20175;-50
2023/09/28 06:56:12;;;;;;;8.70;7.37;;;;;;;;;;5085857;28;20488;-50
2023/09/28 06:58:38;;;;;;;9.90;7.90;;;;;;;;;;5103493;28;20472;-50
2023/09/28 07:01:04;;;;;;;14.77;8.67;;;;;;;;;;5082943;28;20569;-46
2023/09/28 07:03:31;;;;;;;10.43;8.30;;;;;;;;;;5083340;28;20171;-47
2023/09/28 07:05:57;;;;;;;10.13;7.93;;;;;;;;;;5084365;28;20335;-47
2023/09/28 07:08:24;;;;;;;14.70;8.50;;;;;;;;;;5084709;28;20183;-49
2023/09/28 07:10:50;;;;;;;9.93;8.53;;;;;;;;;;5085420;28;20523;-46
2023/09/28 07:13:16;;;;;;;10.80;8.33;;;;;;;;;;5102945;28;20547;-45
2023/09/28 07:15:42;;;;;;;15.47;8.37;;;;;;;;;;5103698;28;20272;-46
2023/09/28 07:18:08;;;;;;;9.50;7.73;;;;;;;;;;5087710;28;20400;-49
2023/09/28 07:20:35;;;;;;;11.57;8.03;;;;;;;;;;5086993;28;20431;-47
2023/09/28 07:23:01;;;;;;;12.83;6.87;;;;;;;;;;5085303;28;20179;-46
2023/09/28 07:25:27;;;;;;;9.93;7.70;;;;;;;;;;5083473;28;20171;-47
2023/09/28 07:27:53;;;;;;;10.57;6.83;;;;;;;;;;5084141;28;20220;-49
2023/09/28 07:30:20;;;;;;;9.83;7.50;;;;;;;;;;5101123;28;20362;-47
2023/09/28 07:32:46;;;;;;;9.57;6.83;;;;;;;;;;5082536;28;20163;-48
2023/09/28 07:35:13;;;;;;;8.77;6.47;;;;;;;;;;5081659;28;20390;-51
2023/09/28 07:37:40;;;;;;;11.17;7.03;;;;;;;;;;5081751;28;20295;-49
2023/09/28 07:40:07;;;;;;;12.77;6.97;;;;;;;;;;5083845;28;20325;-47
2023/09/28 07:42:32;;;;;;;13.73;7.20;;;;;;;;;;5083755;28;20177;-48
2023/09/28 07:44:58;;;;;;;8.17;6.33;;;;;;;;;;5085975;28;20167;-46
2023/09/28 07:47:25;;;;;;;9.83;6.60;;;;;;;;;;5090376;28;20505;-46
2023/09/28 07:49:54;;;;;;;10.33;6.47;;;;;;;;;;5088369;28;20178;-46
2023/09/28 07:52:20;;;;;;;7.43;6.67;;;;;;;;;;5087167;28;20184;-48
2023/09/28 07:54:46;;;;;;;8.53;6.23;;;;;;;;;;5087386;28;20566;-45
2023/09/28 07:57:12;;;;;;;11.10;6.30;;;;;;;;;;5087681;28;20286;-45
2023/09/28 07:59:39;;;;;;;7.80;6.90;;;;;;;;;;5086468;28;20270;-45
2023/09/28 08:02:05;;;;;;;10.87;6.67;;;;;;;;;;5106566;28;20407;-46
2023/09/28 08:04:31;;;;;;;8.73;5.40;;;;;;;;;;5086275;28;20555;-46
2023/09/28 08:06:58;;;;;;;9.90;6.33;;;;;;;;;;5087511;28;20210;-46
2023/09/28 08:09:24;;;;;;;9.13;6.60;;;;;;;;;;5087191;28;20462;-48
2023/09/28 08:11:51;;;;;;;8.63;7.17;;;;;;;;;;5086823;28;20563;-47
2023/09/28 08:14:17;;;;;;;11.43;7.97;;;;;;;;;;5090118;28;20199;-47
2023/09/28 08:16:45;;;;;;;9.73;6.60;;;;;;;;;;5089037;28;20174;-47
2023/09/28 08:19:11;;;;;;;10.67;6.10;;;;;;;;;;5089586;28;20265;-47
2023/09/28 08:21:38;;;;;;;6.97;5.57;;;;;;;;;;5091228;28;20418;-47
2023/09/28 08:24:04;;;;;;;12.70;7.20;;;;;;;;;;5113112;28;20171;-46
2023/09/28 08:26:30;;;;;;;9.30;6.63;;;;;;;;;;5112460;28;20180;-53
2023/09/28 08:28:58;;;;;;;8.17;6.40;;;;;;;;;;5094300;28;20311;-47
2023/09/28 08:31:24;;;;;;;9.13;5.43;;;;;;;;;;5112399;28;20156;-48
2023/09/28 08:33:50;;;;;;;13.97;7.47;;;;;;;;;;5095338;28;20167;-47
2023/09/28 08:36:16;;;;;;;13.87;7.07;;;;;;;;;;5092862;28;20224;-48
2023/09/28 08:38:43;;;;;;;7.73;6.37;;;;;;;;;;5091637;28;20274;-47
2023/09/28 08:41:10;;;;;;;10.70;7.20;;;;;;;;;;5091866;28;20183;-49
2023/09/28 08:43:53;;;;;;;10.47;6.90;;;;;;;;;;5092743;28;20179;-49
2023/09/28 08:46:22;;;;;;;8.73;7.17;;;;;;;;;;5092956;28;20176;-49
2023/09/28 08:48:48;;;;;;;12.13;6.90;;;;;;;;;;5090255;28;20172;-49
2023/09/28 08:51:15;;;;;;;10.10;6.03;;;;;;;;;;5090066;28;20172;-45
2023/09/28 08:53:43;;;;;;;6.97;5.30;;;;;;;;;;5090305;28;20184;-49
2023/09/28 08:56:11;;;;;;;10.70;5.13;;;;;;;;;;5088612;28;20196;-48
2023/09/28 08:58:37;;;;;;;8.40;4.50;;;;;;;;;;5089614;28;20233;-50
2023/09/28 09:01:04;;;;;;;6.27;4.17;;;;;;;;;;5088891;28;20213;-51
2023/09/28 09:03:34;;;;;;;7.13;4.57;;;;;;;;;;5089929;28;20432;-50
2023/09/28 09:06:00;;;;;;;9.07;4.83;;;;;;;;;;5090465;28;20208;-48
2023/09/28 09:08:27;;;;;;;5.13;3.80;;;;;;;;;;5091146;28;20210;-50
2023/09/28 09:10:54;;;;;;;4.00;3.27;;;;;;;;;;5088794;28;20207;-50
2023/09/28 09:13:22;;;;;;;5.67;4.03;;;;;;;;;;5083464;28;20526;-48
2023/09/28 09:15:49;;;;;;;8.97;4.60;;;;;;;;;;5085141;28;20311;-49
2023/09/28 09:18:19;;;;;;;7.67;4.27;;;;;;;;;;5084750;28;20176;-50
2023/09/28 09:20:46;;;;;;;10.10;5.10;;;;;;;;;;5083406;28;20165;-50
2023/09/28 09:23:15;;;;;;;7.07;4.20;;;;;;;;;;5083361;28;20563;-49
2023/09/28 09:25:42;;;;;;;7.50;4.23;;;;;;;;;;5081932;28;20176;-50
2023/09/28 09:28:08;;;;;;;8.23;4.50;;;;;;;;;;5085361;28;20188;-52
2023/09/28 09:30:37;;;;;;;6.93;4.50;;;;;;;;;;5086494;28;20519;-49
2023/09/28 09:33:04;;;;;;;8.30;4.40;;;;;;;;;;5087673;28;20176;-52
2023/09/28 09:35:31;;;;;;;6.33;4.13;;;;;;;;;;5096767;28;20240;-48
2023/09/28 09:37:57;;;;;;;5.33;4.23;;;;;;;;;;5110763;28;20175;-47
2023/09/28 09:40:23;;;;;;;6.80;4.63;;;;;;;;;;5088506;28;20773;-47
2023/09/28 09:42:49;;;;;;;6.07;4.00;;;;;;;;;;5071112;28;20426;-50
2023/09/28 09:45:15;;;;;;;6.60;4.47;;;;;;;;;;5071201;28;20507;-48
2023/09/28 09:47:47;;;;;;;9.70;5.33;;;;;;;;;;5090598;28;20172;-51
2023/09/28 09:50:14;;;;;;;7.07;5.10;;;;;;;;;;5070786;28;20172;-54
2023/09/28 09:52:41;;;;;;;6.50;3.80;;;;;;;;;;5091077;28;20233;-48
2023/09/28 09:55:08;;;;;;;5.10;4.50;;;;;;;;;;5089253;28;20222;-50
2023/09/28 09:57:36;;;;;;;6.80;4.67;;;;;;;;;;5072046;28;20172;-50
2023/09/28 10:00:04;;;;;;;4.90;4.00;;;;;;;;;;5088049;28;20211;-49
2023/09/28 10:02:32;;;;;;;5.93;3.63;;;;;;;;;;5072655;28;20168;-51
2023/09/28 10:05:00;;;;;;;5.83;3.33;;;;;;;;;;5071379;28;20563;-49
2023/09/28 10:07:29;;;;;;;5.37;3.53;;;;;;;;;;5071237;28;20681;-53
2023/09/28 10:09:55;;;;;;;4.40;3.60;;;;;;;;;;5089049;28;20160;-48
2023/09/28 10:12:22;;;;;;;6.17;3.40;;;;;;;;;;5090351;28;20198;-55
2023/09/28 10:14:48;;;;;;;6.00;3.40;;;;;;;;;;5089769;28;20592;-51
2023/09/28 10:17:14;;;;;;;7.73;3.10;;;;;;;;;;5071606;28;20178;-48
2023/09/28 10:19:40;;;;;;;4.10;3.03;;;;;;;;;;5089910;28;20613;-50
2023/09/28 10:22:06;;;;;;;5.03;3.07;;;;;;;;;;5071110;28;20183;-49
2023/09/28 10:24:34;;;;;;;6.33;3.03;;;;;;;;;;5071818;28;20172;-51
2023/09/28 10:27:10;;;;;;;6.40;3.17;;;;;;;;;;5091275;28;20210;-49
2023/09/28 10:29:43;;;;;;;5.73;2.97;;;;;;;;;;5124424;27;20556;-50
2023/09/28 10:32:14;;;;;;;5.93;3.43;;;;;;;;;;5108815;28;20181;-49
2023/09/28 10:34:43;;;;;;;6.00;3.10;;;;;;;;;;5108940;28;20164;-48
2023/09/28 10:37:11;;;;;;;5.40;3.08;;;;;;;;;;5108714;28;20169;-49
2023/09/28 10:39:38;;;;;;;5.82;3.03;;;;;;;;;;5109889;28;20699;-54
2023/09/28 10:42:16;;;;;;;6.35;3.35;;;;;;;;;;5108426;28;20171;-52
2023/09/28 10:44:47;;;;;;;4.82;3.33;;;;;;;;;;5108505;28;20554;-53
2023/09/28 10:47:13;;;;;;;4.90;3.25;;;;;;;;;;5107199;28;20554;-51
2023/09/28 10:49:41;;;;;;;6.80;2.97;;;;;;;;;;5107854;28;20258;-50
2023/09/28 10:52:09;;;;;;;5.18;2.60;;;;;;;;;;5108557;28;20164;-49
2023/09/28 10:54:35;;;;;;;9.05;3.35;;;;;;;;;;5107796;28;20191;-52
2023/09/28 10:57:02;;;;;;;6.88;3.05;;;;;;;;;;5105352;28;20167;-49
2023/09/28 10:59:29;;;;;;;5.22;2.97;;;;;;;;;;5106614;28;20211;-48
2023/09/28 11:01:55;;;;;;;10.55;3.03;;;;;;;;;;5105084;28;20179;-49
2023/09/28 11:04:21;;;;;;;10.57;4.38;;;;;;;;;;5104590;28;20186;-46
2023/09/28 11:06:49;;;;;;;5.05;3.30;;;;;;;;;;5106116;28;20164;-49
2023/09/28 11:09:19;;;;;;;9.30;3.67;;;;;;;;;;5105501;28;20810;-48
2023/09/28 11:11:45;;;;;;;4.70;3.00;;;;;;;;;;5106233;28;20254;-46
2023/09/28 11:14:11;;;;;;;6.10;3.33;;;;;;;;;;5104639;28;20171;-49
2023/09/28 11:16:42;;;;;;;6.30;3.05;;;;;;;;;;5106044;28;20257;-50
2023/09/28 11:19:11;;;;;;;7.40;3.75;;;;;;;;;;5105202;28;20176;-47
2023/09/28 11:21:38;;;;;;;4.78;3.00;;;;;;;;;;5105461;28;20183;-47
2023/09/28 11:24:05;;;;;;;5.43;3.20;;;;;;;;;;5104412;28;20462;-47
2023/09/28 11:26:31;;;;;;;5.97;3.53;;;;;;;;;;5104072;28;20178;-47
2023/09/28 11:29:00;;;;;;;7.77;3.60;;;;;;;;;;5106344;28;20227;-46
2023/09/28 11:31:27;;;;;;;4.40;3.37;;;;;;;;;;5106902;28;20171;-50
2023/09/28 11:33:56;;;;;;;6.07;4.13;;;;;;;;;;5106873;28;20254;-51
2023/09/28 11:36:22;;;;;;;6.00;3.27;;;;;;;;;;5107818;28;20160;-53
2023/09/28 11:38:49;;;;;;;6.50;3.50;;;;;;;;;;5107871;28;20295;-49
2023/09/28 11:41:15;;;;;;;8.70;3.53;;;;;;;;;;5094171;28;20292;-49
2023/09/28 11:43:45;;;;;;;8.90;3.87;;;;;;;;;;5094046;28;20188;-47
2023/09/28 11:46:12;;;;;;;4.77;3.27;;;;;;;;;;5092893;28;20175;-45
2023/09/28 11:48:38;;;;;;;6.50;3.20;;;;;;;;;;5092927;28;20200;-53
2023/09/28 11:51:06;;;;;;;7.57;3.87;;;;;;;;;;5090181;28;20163;-49
2023/09/28 11:53:32;;;;;;;8.05;3.30;;;;;;;;;;5089583;28;20168;-50
2023/09/28 11:56:01;;;;;;;4.43;3.43;;;;;;;;;;5090138;28;20164;-47
2023/09/28 11:58:27;;;;;;;5.23;3.70;;;;;;;;;;5090123;28;20188;-49
2023/09/28 12:00:53;;;;;;;4.50;2.90;;;;;;;;;;5089879;28;20676;-50
2023/09/28 12:03:20;;;;;;;5.03;3.63;;;;;;;;;;5089586;28;20172;-47
2023/09/28 12:05:47;;;;;;;5.07;3.63;;;;;;;;;;5092278;28;20861;-50
2023/09/28 12:08:13;;;;;;;6.57;3.20;;;;;;;;;;5088321;28;20208;-50
2023/09/28 12:10:39;;;;;;;7.00;3.03;;;;;;;;;;5084926;28;20172;-49
2023/09/28 12:13:05;;;;;;;5.03;2.97;;;;;;;;;;5085809;28;20571;-50
2023/09/28 12:15:31;;;;;;;4.27;2.97;;;;;;;;;;5083740;28;20168;-48
2023/09/28 12:17:58;;;;;;;8.63;3.20;;;;;;;;;;5082002;28;20237;-47
2023/09/28 12:20:24;;;;;;;4.47;3.17;;;;;;;;;;5081737;28;20172;-47
2023/09/28 12:22:51;;;;;;;5.73;3.10;;;;;;;;;;5079458;28;20298;-49
2023/09/28 12:25:18;;;;;;;5.93;3.60;;;;;;;;;;5078996;28;20428;-53
2023/09/28 12:27:44;;;;;;;5.00;3.30;;;;;;;;;;5078649;28;20407;-49
2023/09/28 12:30:16;;;;;;;4.63;3.10;;;;;;;;;;5077932;28;20172;-48
2023/09/28 12:32:45;;;;;;;6.07;3.17;;;;;;;;;;5077435;28;20245;-47
2023/09/28 12:35:11;;;;;;;8.43;3.50;;;;;;;;;;5079422;28;20944;-48
2023/09/28 12:37:38;;;;;;;5.43;2.70;;;;;;;;;;5081447;28;20164;-51
2023/09/28 12:40:04;;;;;;;6.40;2.70;;;;;;;;;;5082725;28;20531;-48
2023/09/28 12:42:30;;;;;;;6.00;2.37;;;;;;;;;;5084124;28;20172;-48
2023/09/28 12:44:58;;;;;;;4.77;2.83;;;;;;;;;;5084861;28;20551;-49
2023/09/28 12:47:24;;;;;;;5.47;3.10;;;;;;;;;;5084419;28;20637;-49
2023/09/28 12:49:51;;;;;;;6.67;3.17;;;;;;;;;;5086284;28;20168;-51
2023/09/28 12:52:17;;;;;;;7.93;3.37;;;;;;;;;;5084563;28;20454;-49
2023/09/28 12:54:45;;;;;;;5.10;2.87;;;;;;;;;;5085364;28;20548;-50
2023/09/28 12:57:11;;;;;;;7.18;2.92;;;;;;;;;;5090945;28;20509;-48
2023/09/28 12:59:38;;;;;;;6.63;2.97;;;;;;;;;;5089527;28;20282;-51
2023/09/28 13:02:05;;;;;;;6.27;3.20;;;;;;;;;;5089848;28;20176;-50
2023/09/28 13:04:32;;;;;;;4.80;3.13;;;;;;;;;;5084616;28;20171;-48
2023/09/28 13:06:58;;;;;;;6.00;3.10;;;;;;;;;;5081726;28;20168;-47
2023/09/28 13:09:26;;;;;;;6.33;2.93;;;;;;;;;;5082800;28;20386;-49
2023/09/28 13:11:54;;;;;;;7.07;3.33;;;;;;;;;;5084884;28;20156;-49
2023/09/28 13:14:25;;;;;;;4.97;2.80;;;;;;;;;;5086885;28;20183;-52
2023/09/28 13:16:52;;;;;;;6.43;3.27;;;;;;;;;;5088154;28;20172;-50
2023/09/28 13:19:18;;;;;;;8.37;3.57;;;;;;;;;;5089021;28;20182;-49
2023/09/28 13:21:46;;;;;;;6.30;2.80;;;;;;;;;;5089548;28;20229;-48
2023/09/28 13:24:12;;;;;;;6.87;3.13;;;;;;;;;;5089046;28;20172;-53
2023/09/28 13:26:38;;;;;;;4.80;2.80;;;;;;;;;;5089280;28;20267;-49
2023/09/28 13:29:05;;;;;;;6.13;3.30;;;;;;;;;;5087265;28;20287;-47
2023/09/28 13:31:31;;;;;;;5.87;2.70;;;;;;;;;;5087817;28;20818;-50
2023/09/28 13:34:00;;;;;;;4.50;2.57;;;;;;;;;;5089460;28;20729;-49
2023/09/28 13:36:26;;;;;;;8.23;2.67;;;;;;;;;;5087595;28;20178;-49
2023/09/28 13:38:53;;;;;;;4.67;2.80;;;;;;;;;;5088676;28;20164;-49
2023/09/28 13:41:26;;;;;;;6.60;2.60;;;;;;;;;;5087733;28;20266;-48
2023/09/28 13:43:52;;;;;;;4.73;2.70;;;;;;;;;;5088830;28;20617;-50
2023/09/28 13:46:18;;;;;;;5.60;2.87;;;;;;;;;;5087472;28;20202;-49
2023/09/28 13:48:45;;;;;;;9.00;3.00;;;;;;;;;;5086077;28;20207;-51
2023/09/28 13:51:13;;;;;;;6.77;3.40;;;;;;;;;;5084942;28;20233;-48
2023/09/28 13:53:40;;;;;;;5.30;2.97;;;;;;;;;;5088249;28;20179;-54
2023/09/28 13:56:07;;;;;;;7.60;3.00;;;;;;;;;;5088330;28;20164;-48
2023/09/28 13:58:34;;;;;;;4.43;2.80;;;;;;;;;;5085999;28;20547;-48
2023/09/28 14:01:00;;;;;;;5.83;2.63;;;;;;;;;;5088771;28;20294;-48
2023/09/28 14:03:27;;;;;;;6.23;3.10;;;;;;;;;;5087755;28;20171;-50
2023/09/28 14:05:53;;;;;;;4.97;2.70;;;;;;;;;;5087397;28;20171;-49
2023/09/28 14:08:19;;;;;;;7.70;2.57;;;;;;;;;;5086686;28;20187;-52
2023/09/28 14:10:46;;;;;;;5.63;3.33;;;;;;;;;;5085817;28;20218;-53
2023/09/28 14:13:11;;;;;;;5.37;2.73;;;;;;;;;;5087120;28;20188;-49
2023/09/28 14:15:37;;;;;;;4.63;2.67;;;;;;;;;;5086115;28;20172;-50
2023/09/28 14:18:05;;;;;;;9.53;3.00;;;;;;;;;;5085194;28;20179;-52
2023/09/28 14:20:35;;;;;;;8.50;2.70;;;;;;;;;;5086558;28;20176;-49
2023/09/28 14:23:01;;;;;;;6.63;2.93;;;;;;;;;;5087107;28;20258;-52
2023/09/28 14:25:28;;;;;;;7.93;3.27;;;;;;;;;;5087697;28;20258;-52
2023/09/28 14:27:54;;;;;;;6.43;2.80;;;;;;;;;;5084231;28;20231;-53
2023/09/28 14:30:21;;;;;;;7.00;2.50;;;;;;;;;;5085413;28;20169;-51
2023/09/28 14:32:47;;;;;;;4.77;2.80;;;;;;;;;;5086902;28;20594;-50
2023/09/28 14:35:15;;;;;;;6.37;3.13;;;;;;;;;;5084990;28;20263;-49
2023/09/28 14:37:42;;;;;;;4.67;3.10;;;;;;;;;;5084705;28;20172;-52
2023/09/28 14:40:12;;;;;;;4.83;2.73;;;;;;;;;;5083747;28;20172;-50
2023/09/28 14:42:39;;;;;;;4.03;2.67;;;;;;;;;;5084447;28;20211;-51